sensor_id;sensor_type;location;lat;lon;timestamp;P1;durP1;ratioP1;P2;durP2;ratioP2
6053;SDS011;3055;50.886;14.814;2023-03-29T00:02:04;23.87;;;11.53;;
6053;SDS011;3055;50.886;14.814;2023-03-29T00:04:31;21.67;;;12.50;;
6053;SDS011;3055;50.886;14.814;2023-03-29T00:06:59;23.47;;;12.10;;
6053;SDS011;3055;50.886;14.814;2023-03-29T00:09:28;18.17;;;10.20;;
6053;SDS011;3055;50.886;14.814;2023-03-29T00:11:57;18.73;;;11.20;;
6053;SDS011;3055;50.886;14.814;2023-03-29T00:14:25;15.37;;;10.70;;
6053;SDS011;3055;50.886;14.814;2023-03-29T00:16:53;15.30;;;9.37;;
6053;SDS011;3055;50.886;14.814;2023-03-29T00:19:20;13.43;;;8.47;;
6053;SDS011;3055;50.886;14.814;2023-03-29T00:21:47;13.20;;;8.30;;
6053;SDS011;3055;50.886;14.814;2023-03-29T00:24:14;13.00;;;9.10;;
6053;SDS011;3055;50.886;14.814;2023-03-29T00:26:41;12.10;;;8.40;;
6053;SDS011;3055;50.886;14.814;2023-03-29T00:29:09;14.87;;;8.50;;
6053;SDS011;3055;50.886;14.814;2023-03-29T00:31:37;16.40;;;8.67;;
6053;SDS011;3055;50.886;14.814;2023-03-29T00:34:04;14.20;;;8.57;;
6053;SDS011;3055;50.886;14.814;2023-03-29T00:36:32;15.23;;;9.80;;
6053;SDS011;3055;50.886;14.814;2023-03-29T00:38:58;13.33;;;8.63;;
6053;SDS011;3055;50.886;14.814;2023-03-29T00:41:26;12.27;;;8.20;;
6053;SDS011;3055;50.886;14.814;2023-03-29T00:43:54;9.93;;;8.30;;
6053;SDS011;3055;50.886;14.814;2023-03-29T00:46:25;15.43;;;9.23;;
6053;SDS011;3055;50.886;14.814;2023-03-29T00:48:54;14.10;;;9.07;;
6053;SDS011;3055;50.886;14.814;2023-03-29T00:51:24;12.53;;;8.53;;
6053;SDS011;3055;50.886;14.814;2023-03-29T00:53:54;15.23;;;9.40;;
6053;SDS011;3055;50.886;14.814;2023-03-29T00:56:25;15.03;;;8.90;;
6053;SDS011;3055;50.886;14.814;2023-03-29T00:58:56;16.00;;;9.17;;
6053;SDS011;3055;50.886;14.814;2023-03-29T01:01:30;10.20;;;8.60;;
6053;SDS011;3055;50.886;14.814;2023-03-29T01:04:03;12.50;;;8.70;;
6053;SDS011;3055;50.886;14.814;2023-03-29T01:06:42;13.87;;;8.93;;
6053;SDS011;3055;50.886;14.814;2023-03-29T01:09:12;15.23;;;9.33;;
6053;SDS011;3055;50.886;14.814;2023-03-29T01:11:43;11.93;;;8.33;;
6053;SDS011;3055;50.886;14.814;2023-03-29T01:14:17;12.83;;;8.83;;
6053;SDS011;3055;50.886;14.814;2023-03-29T01:16:49;12.70;;;8.90;;
6053;SDS011;3055;50.886;14.814;2023-03-29T01:19:18;12.47;;;8.47;;
6053;SDS011;3055;50.886;14.814;2023-03-29T01:21:51;14.50;;;8.70;;
6053;SDS011;3055;50.886;14.814;2023-03-29T01:24:32;13.60;;;8.63;;
6053;SDS011;3055;50.886;14.814;2023-03-29T01:27:11;10.93;;;7.60;;
6053;SDS011;3055;50.886;14.814;2023-03-29T01:29:44;14.77;;;8.97;;
6053;SDS011;3055;50.886;14.814;2023-03-29T01:32:15;12.30;;;8.00;;
6053;SDS011;3055;50.886;14.814;2023-03-29T01:34:47;11.77;;;7.90;;
6053;SDS011;3055;50.886;14.814;2023-03-29T01:37:17;14.40;;;8.13;;
6053;SDS011;3055;50.886;14.814;2023-03-29T01:39:49;14.13;;;8.57;;
6053;SDS011;3055;50.886;14.814;2023-03-29T01:42:21;10.43;;;8.13;;
6053;SDS011;3055;50.886;14.814;2023-03-29T01:44:59;11.87;;;7.73;;
6053;SDS011;3055;50.886;14.814;2023-03-29T01:47:35;12.53;;;8.03;;
6053;SDS011;3055;50.886;14.814;2023-03-29T01:50:11;12.47;;;8.00;;
6053;SDS011;3055;50.886;14.814;2023-03-29T01:52:44;12.03;;;8.37;;
6053;SDS011;3055;50.886;14.814;2023-03-29T01:55:16;16.53;;;8.30;;
6053;SDS011;3055;50.886;14.814;2023-03-29T01:57:46;16.73;;;8.37;;
6053;SDS011;3055;50.886;14.814;2023-03-29T02:00:18;13.70;;;8.00;;
6053;SDS011;3055;50.886;14.814;2023-03-29T02:02:48;11.63;;;8.50;;
6053;SDS011;3055;50.886;14.814;2023-03-29T02:05:18;10.73;;;7.33;;
6053;SDS011;3055;50.886;14.814;2023-03-29T02:07:48;11.23;;;8.33;;
6053;SDS011;3055;50.886;14.814;2023-03-29T02:10:17;10.77;;;8.20;;
6053;SDS011;3055;50.886;14.814;2023-03-29T02:12:45;12.37;;;7.40;;
6053;SDS011;3055;50.886;14.814;2023-03-29T02:15:13;9.13;;;6.97;;
6053;SDS011;3055;50.886;14.814;2023-03-29T02:17:44;14.53;;;9.33;;
6053;SDS011;3055;50.886;14.814;2023-03-29T02:20:12;11.67;;;8.87;;
6053;SDS011;3055;50.886;14.814;2023-03-29T02:22:46;11.17;;;8.17;;
6053;SDS011;3055;50.886;14.814;2023-03-29T02:25:17;13.30;;;8.43;;
6053;SDS011;3055;50.886;14.814;2023-03-29T02:27:46;11.27;;;8.00;;
6053;SDS011;3055;50.886;14.814;2023-03-29T02:30:14;14.73;;;8.93;;
6053;SDS011;3055;50.886;14.814;2023-03-29T02:32:50;13.33;;;8.70;;
6053;SDS011;3055;50.886;14.814;2023-03-29T02:35:25;14.73;;;9.43;;
6053;SDS011;3055;50.886;14.814;2023-03-29T02:37:58;11.33;;;8.80;;
6053;SDS011;3055;50.886;14.814;2023-03-29T02:40:29;11.90;;;7.80;;
6053;SDS011;3055;50.886;14.814;2023-03-29T02:42:59;13.53;;;8.40;;
6053;SDS011;3055;50.886;14.814;2023-03-29T02:45:28;12.73;;;8.93;;
6053;SDS011;3055;50.886;14.814;2023-03-29T02:47:58;12.37;;;8.37;;
6053;SDS011;3055;50.886;14.814;2023-03-29T02:50:33;13.23;;;8.27;;
6053;SDS011;3055;50.886;14.814;2023-03-29T02:53:03;11.27;;;8.60;;
6053;SDS011;3055;50.886;14.814;2023-03-29T02:55:34;12.30;;;8.50;;
6053;SDS011;3055;50.886;14.814;2023-03-29T02:58:01;10.90;;;7.87;;
6053;SDS011;3055;50.886;14.814;2023-03-29T03:00:32;13.83;;;7.80;;
6053;SDS011;3055;50.886;14.814;2023-03-29T03:03:02;12.63;;;7.70;;
6053;SDS011;3055;50.886;14.814;2023-03-29T03:05:30;11.37;;;7.03;;
6053;SDS011;3055;50.886;14.814;2023-03-29T03:07:57;13.03;;;7.50;;
6053;SDS011;3055;50.886;14.814;2023-03-29T03:10:24;12.27;;;7.40;;
6053;SDS011;3055;50.886;14.814;2023-03-29T03:12:51;13.27;;;6.80;;
6053;SDS011;3055;50.886;14.814;2023-03-29T03:15:19;9.87;;;7.07;;
6053;SDS011;3055;50.886;14.814;2023-03-29T03:17:46;13.83;;;7.73;;
6053;SDS011;3055;50.886;14.814;2023-03-29T03:20:14;9.30;;;7.07;;
6053;SDS011;3055;50.886;14.814;2023-03-29T03:22:42;10.53;;;7.13;;
6053;SDS011;3055;50.886;14.814;2023-03-29T03:25:12;11.60;;;7.50;;
6053;SDS011;3055;50.886;14.814;2023-03-29T03:27:41;11.33;;;7.10;;
6053;SDS011;3055;50.886;14.814;2023-03-29T03:30:09;10.70;;;7.30;;
6053;SDS011;3055;50.886;14.814;2023-03-29T03:32:37;12.83;;;7.93;;
6053;SDS011;3055;50.886;14.814;2023-03-29T03:35:04;11.00;;;7.30;;
6053;SDS011;3055;50.886;14.814;2023-03-29T03:37:34;10.67;;;7.20;;
6053;SDS011;3055;50.886;14.814;2023-03-29T03:40:02;19.77;;;9.23;;
6053;SDS011;3055;50.886;14.814;2023-03-29T03:42:35;33.43;;;12.87;;
6053;SDS011;3055;50.886;14.814;2023-03-29T03:45:03;15.27;;;6.97;;
6053;SDS011;3055;50.886;14.814;2023-03-29T03:47:32;5.17;;;4.40;;
6053;SDS011;3055;50.886;14.814;2023-03-29T03:49:59;6.63;;;4.00;;
6053;SDS011;3055;50.886;14.814;2023-03-29T03:52:26;5.80;;;3.63;;
6053;SDS011;3055;50.886;14.814;2023-03-29T03:54:54;7.13;;;4.40;;
6053;SDS011;3055;50.886;14.814;2023-03-29T03:57:21;8.77;;;5.13;;
6053;SDS011;3055;50.886;14.814;2023-03-29T03:59:48;6.17;;;4.60;;
6053;SDS011;3055;50.886;14.814;2023-03-29T04:02:16;7.70;;;4.77;;
6053;SDS011;3055;50.886;14.814;2023-03-29T04:04:44;6.00;;;4.00;;
6053;SDS011;3055;50.886;14.814;2023-03-29T04:07:11;8.00;;;3.90;;
6053;SDS011;3055;50.886;14.814;2023-03-29T04:09:41;9.57;;;4.87;;
6053;SDS011;3055;50.886;14.814;2023-03-29T04:12:10;14.63;;;5.60;;
6053;SDS011;3055;50.886;14.814;2023-03-29T04:14:37;5.83;;;4.20;;
6053;SDS011;3055;50.886;14.814;2023-03-29T04:17:04;6.07;;;4.30;;
6053;SDS011;3055;50.886;14.814;2023-03-29T04:19:32;5.03;;;3.90;;
6053;SDS011;3055;50.886;14.814;2023-03-29T04:21:59;6.13;;;4.20;;
6053;SDS011;3055;50.886;14.814;2023-03-29T04:24:26;7.07;;;4.50;;
6053;SDS011;3055;50.886;14.814;2023-03-29T04:26:53;7.13;;;4.53;;
6053;SDS011;3055;50.886;14.814;2023-03-29T04:29:21;8.57;;;4.50;;
6053;SDS011;3055;50.886;14.814;2023-03-29T04:31:48;6.33;;;4.67;;
6053;SDS011;3055;50.886;14.814;2023-03-29T04:34:15;9.07;;;4.47;;
6053;SDS011;3055;50.886;14.814;2023-03-29T04:36:42;7.67;;;4.90;;
6053;SDS011;3055;50.886;14.814;2023-03-29T04:39:09;6.97;;;4.40;;
6053;SDS011;3055;50.886;14.814;2023-03-29T04:41:37;5.33;;;4.03;;
6053;SDS011;3055;50.886;14.814;2023-03-29T04:44:04;5.27;;;4.13;;
6053;SDS011;3055;50.886;14.814;2023-03-29T04:46:33;7.40;;;3.93;;
6053;SDS011;3055;50.886;14.814;2023-03-29T04:49:02;8.53;;;4.07;;
6053;SDS011;3055;50.886;14.814;2023-03-29T04:51:29;6.53;;;4.07;;
6053;SDS011;3055;50.886;14.814;2023-03-29T04:53:57;7.73;;;4.53;;
6053;SDS011;3055;50.886;14.814;2023-03-29T04:56:24;6.37;;;3.63;;
6053;SDS011;3055;50.886;14.814;2023-03-29T04:58:51;7.53;;;3.90;;
6053;SDS011;3055;50.886;14.814;2023-03-29T05:01:18;7.13;;;3.90;;
6053;SDS011;3055;50.886;14.814;2023-03-29T05:03:47;7.63;;;3.80;;
6053;SDS011;3055;50.886;14.814;2023-03-29T05:06:14;7.07;;;3.97;;
6053;SDS011;3055;50.886;14.814;2023-03-29T05:08:41;6.33;;;4.23;;
6053;SDS011;3055;50.886;14.814;2023-03-29T05:11:09;5.13;;;3.60;;
6053;SDS011;3055;50.886;14.814;2023-03-29T05:13:37;5.30;;;3.80;;
6053;SDS011;3055;50.886;14.814;2023-03-29T05:16:05;5.00;;;3.63;;
6053;SDS011;3055;50.886;14.814;2023-03-29T05:18:33;6.60;;;3.83;;
6053;SDS011;3055;50.886;14.814;2023-03-29T05:21:01;4.40;;;3.70;;
6053;SDS011;3055;50.886;14.814;2023-03-29T05:23:29;8.43;;;3.97;;
6053;SDS011;3055;50.886;14.814;2023-03-29T05:25:56;6.37;;;4.20;;
6053;SDS011;3055;50.886;14.814;2023-03-29T05:28:23;5.33;;;4.10;;
6053;SDS011;3055;50.886;14.814;2023-03-29T05:30:58;6.53;;;4.50;;
6053;SDS011;3055;50.886;14.814;2023-03-29T05:33:26;5.43;;;4.60;;
6053;SDS011;3055;50.886;14.814;2023-03-29T05:36:01;5.27;;;3.83;;
6053;SDS011;3055;50.886;14.814;2023-03-29T05:38:30;5.93;;;3.80;;
6053;SDS011;3055;50.886;14.814;2023-03-29T05:40:58;5.23;;;3.80;;
6053;SDS011;3055;50.886;14.814;2023-03-29T05:43:25;7.57;;;4.17;;
6053;SDS011;3055;50.886;14.814;2023-03-29T05:45:53;7.00;;;4.20;;
6053;SDS011;3055;50.886;14.814;2023-03-29T05:48:20;8.80;;;3.90;;
6053;SDS011;3055;50.886;14.814;2023-03-29T05:50:48;7.20;;;4.47;;
6053;SDS011;3055;50.886;14.814;2023-03-29T05:53:18;4.57;;;3.40;;
6053;SDS011;3055;50.886;14.814;2023-03-29T05:55:46;4.77;;;3.57;;
6053;SDS011;3055;50.886;14.814;2023-03-29T05:58:13;9.67;;;3.97;;
6053;SDS011;3055;50.886;14.814;2023-03-29T06:00:42;5.17;;;3.60;;
6053;SDS011;3055;50.886;14.814;2023-03-29T06:03:13;6.97;;;3.73;;
6053;SDS011;3055;50.886;14.814;2023-03-29T06:05:43;6.67;;;3.90;;
6053;SDS011;3055;50.886;14.814;2023-03-29T06:08:10;7.23;;;4.23;;
6053;SDS011;3055;50.886;14.814;2023-03-29T06:10:39;8.70;;;4.23;;
6053;SDS011;3055;50.886;14.814;2023-03-29T06:13:07;7.83;;;3.90;;
6053;SDS011;3055;50.886;14.814;2023-03-29T06:15:34;4.70;;;3.70;;
6053;SDS011;3055;50.886;14.814;2023-03-29T06:18:02;9.87;;;4.37;;
6053;SDS011;3055;50.886;14.814;2023-03-29T06:20:29;7.53;;;3.60;;
6053;SDS011;3055;50.886;14.814;2023-03-29T06:22:57;8.17;;;3.80;;
6053;SDS011;3055;50.886;14.814;2023-03-29T06:25:24;4.13;;;3.13;;
6053;SDS011;3055;50.886;14.814;2023-03-29T06:27:52;6.30;;;3.87;;
6053;SDS011;3055;50.886;14.814;2023-03-29T06:30:19;7.93;;;4.83;;
6053;SDS011;3055;50.886;14.814;2023-03-29T06:32:46;9.63;;;3.60;;
6053;SDS011;3055;50.886;14.814;2023-03-29T06:35:14;10.17;;;3.50;;
6053;SDS011;3055;50.886;14.814;2023-03-29T06:37:42;7.47;;;3.87;;
6053;SDS011;3055;50.886;14.814;2023-03-29T06:40:13;7.50;;;4.13;;
6053;SDS011;3055;50.886;14.814;2023-03-29T06:42:42;5.30;;;3.50;;
6053;SDS011;3055;50.886;14.814;2023-03-29T06:45:11;5.70;;;3.40;;
6053;SDS011;3055;50.886;14.814;2023-03-29T06:47:39;5.60;;;3.53;;
6053;SDS011;3055;50.886;14.814;2023-03-29T06:50:06;6.43;;;4.07;;
6053;SDS011;3055;50.886;14.814;2023-03-29T06:52:35;10.47;;;4.10;;
6053;SDS011;3055;50.886;14.814;2023-03-29T06:55:02;7.30;;;3.70;;
6053;SDS011;3055;50.886;14.814;2023-03-29T06:57:31;6.43;;;3.97;;
6053;SDS011;3055;50.886;14.814;2023-03-29T06:59:59;5.80;;;3.40;;
6053;SDS011;3055;50.886;14.814;2023-03-29T07:02:27;5.27;;;3.43;;
6053;SDS011;3055;50.886;14.814;2023-03-29T07:04:54;7.87;;;3.83;;
6053;SDS011;3055;50.886;14.814;2023-03-29T07:07:21;5.67;;;4.00;;
6053;SDS011;3055;50.886;14.814;2023-03-29T07:09:57;7.27;;;3.77;;
6053;SDS011;3055;50.886;14.814;2023-03-29T07:12:25;8.23;;;4.43;;
6053;SDS011;3055;50.886;14.814;2023-03-29T07:14:52;8.87;;;4.27;;
6053;SDS011;3055;50.886;14.814;2023-03-29T07:17:19;5.27;;;4.17;;
6053;SDS011;3055;50.886;14.814;2023-03-29T07:19:48;7.50;;;4.70;;
6053;SDS011;3055;50.886;14.814;2023-03-29T07:22:15;10.60;;;3.90;;
6053;SDS011;3055;50.886;14.814;2023-03-29T07:24:42;7.70;;;4.40;;
6053;SDS011;3055;50.886;14.814;2023-03-29T07:27:09;6.87;;;4.70;;
6053;SDS011;3055;50.886;14.814;2023-03-29T07:29:36;5.37;;;3.83;;
6053;SDS011;3055;50.886;14.814;2023-03-29T07:32:04;7.43;;;4.17;;
6053;SDS011;3055;50.886;14.814;2023-03-29T07:34:31;12.43;;;5.93;;
6053;SDS011;3055;50.886;14.814;2023-03-29T07:36:59;14.00;;;6.73;;
6053;SDS011;3055;50.886;14.814;2023-03-29T07:39:26;14.67;;;7.30;;
6053;SDS011;3055;50.886;14.814;2023-03-29T07:41:55;11.73;;;6.93;;
6053;SDS011;3055;50.886;14.814;2023-03-29T07:44:23;11.17;;;6.73;;
6053;SDS011;3055;50.886;14.814;2023-03-29T07:46:51;10.17;;;5.83;;
6053;SDS011;3055;50.886;14.814;2023-03-29T07:49:18;13.47;;;7.17;;
6053;SDS011;3055;50.886;14.814;2023-03-29T07:51:45;10.30;;;6.20;;
6053;SDS011;3055;50.886;14.814;2023-03-29T07:54:14;12.97;;;6.23;;
6053;SDS011;3055;50.886;14.814;2023-03-29T07:56:41;11.03;;;5.83;;
6053;SDS011;3055;50.886;14.814;2023-03-29T07:59:08;7.63;;;4.20;;
6053;SDS011;3055;50.886;14.814;2023-03-29T08:01:35;7.10;;;4.20;;
6053;SDS011;3055;50.886;14.814;2023-03-29T08:04:05;7.50;;;4.00;;
6053;SDS011;3055;50.886;14.814;2023-03-29T08:06:32;9.73;;;3.97;;
6053;SDS011;3055;50.886;14.814;2023-03-29T08:08:59;6.27;;;3.43;;
6053;SDS011;3055;50.886;14.814;2023-03-29T08:11:27;9.30;;;3.57;;
6053;SDS011;3055;50.886;14.814;2023-03-29T08:13:54;6.40;;;3.77;;
6053;SDS011;3055;50.886;14.814;2023-03-29T08:16:23;6.43;;;4.13;;
6053;SDS011;3055;50.886;14.814;2023-03-29T08:18:50;7.73;;;3.60;;
6053;SDS011;3055;50.886;14.814;2023-03-29T08:21:17;5.97;;;4.03;;
6053;SDS011;3055;50.886;14.814;2023-03-29T08:23:44;7.90;;;4.07;;
6053;SDS011;3055;50.886;14.814;2023-03-29T08:26:11;5.33;;;3.87;;
6053;SDS011;3055;50.886;14.814;2023-03-29T08:28:41;5.97;;;4.27;;
6053;SDS011;3055;50.886;14.814;2023-03-29T08:31:08;9.10;;;3.87;;
6053;SDS011;3055;50.886;14.814;2023-03-29T08:33:37;8.93;;;4.50;;
6053;SDS011;3055;50.886;14.814;2023-03-29T08:36:04;4.30;;;3.63;;
6053;SDS011;3055;50.886;14.814;2023-03-29T08:38:32;6.20;;;4.17;;
6053;SDS011;3055;50.886;14.814;2023-03-29T08:40:59;6.27;;;4.30;;
6053;SDS011;3055;50.886;14.814;2023-03-29T08:43:30;7.80;;;4.40;;
6053;SDS011;3055;50.886;14.814;2023-03-29T08:46:17;6.30;;;4.10;;
6053;SDS011;3055;50.886;14.814;2023-03-29T08:48:52;7.20;;;4.40;;
6053;SDS011;3055;50.886;14.814;2023-03-29T08:51:24;7.93;;;4.17;;
6053;SDS011;3055;50.886;14.814;2023-03-29T08:53:55;10.40;;;4.50;;
6053;SDS011;3055;50.886;14.814;2023-03-29T08:56:25;6.57;;;4.53;;
6053;SDS011;3055;50.886;14.814;2023-03-29T08:58:56;5.57;;;4.20;;
6053;SDS011;3055;50.886;14.814;2023-03-29T09:01:24;8.03;;;4.93;;
6053;SDS011;3055;50.886;14.814;2023-03-29T09:03:59;7.20;;;4.67;;
6053;SDS011;3055;50.886;14.814;2023-03-29T09:06:31;8.13;;;4.90;;
6053;SDS011;3055;50.886;14.814;2023-03-29T09:08:58;6.67;;;4.70;;
6053;SDS011;3055;50.886;14.814;2023-03-29T09:11:32;11.37;;;5.20;;
6053;SDS011;3055;50.886;14.814;2023-03-29T09:14:19;8.63;;;4.60;;
6053;SDS011;3055;50.886;14.814;2023-03-29T09:16:58;6.17;;;4.50;;
6053;SDS011;3055;50.886;14.814;2023-03-29T09:19:38;9.20;;;4.60;;
6053;SDS011;3055;50.886;14.814;2023-03-29T09:22:11;8.27;;;4.30;;
6053;SDS011;3055;50.886;14.814;2023-03-29T09:24:46;8.33;;;4.40;;
6053;SDS011;3055;50.886;14.814;2023-03-29T09:27:25;7.83;;;4.43;;
6053;SDS011;3055;50.886;14.814;2023-03-29T09:29:59;6.03;;;4.43;;
6053;SDS011;3055;50.886;14.814;2023-03-29T09:32:30;7.87;;;5.60;;
6053;SDS011;3055;50.886;14.814;2023-03-29T09:35:07;9.27;;;5.07;;
6053;SDS011;3055;50.886;14.814;2023-03-29T09:37:42;8.90;;;4.57;;
6053;SDS011;3055;50.886;14.814;2023-03-29T09:40:11;8.60;;;5.20;;
6053;SDS011;3055;50.886;14.814;2023-03-29T09:42:41;24.47;;;13.40;;
6053;SDS011;3055;50.886;14.814;2023-03-29T09:45:11;6.60;;;4.77;;
6053;SDS011;3055;50.886;14.814;2023-03-29T09:47:38;10.83;;;6.60;;
6053;SDS011;3055;50.886;14.814;2023-03-29T09:50:11;10.20;;;6.63;;
6053;SDS011;3055;50.886;14.814;2023-03-29T09:52:41;7.40;;;4.87;;
6053;SDS011;3055;50.886;14.814;2023-03-29T09:55:11;9.90;;;4.90;;
6053;SDS011;3055;50.886;14.814;2023-03-29T09:57:40;8.53;;;5.97;;
6053;SDS011;3055;50.886;14.814;2023-03-29T10:00:08;8.67;;;4.77;;
6053;SDS011;3055;50.886;14.814;2023-03-29T10:02:38;7.73;;;5.77;;
6053;SDS011;3055;50.886;14.814;2023-03-29T10:05:06;7.20;;;4.50;;
6053;SDS011;3055;50.886;14.814;2023-03-29T10:07:38;11.93;;;5.13;;
6053;SDS011;3055;50.886;14.814;2023-03-29T10:10:09;9.87;;;5.07;;
6053;SDS011;3055;50.886;14.814;2023-03-29T10:12:45;7.07;;;4.67;;
6053;SDS011;3055;50.886;14.814;2023-03-29T10:15:17;6.73;;;4.70;;
6053;SDS011;3055;50.886;14.814;2023-03-29T10:17:45;9.10;;;4.17;;
6053;SDS011;3055;50.886;14.814;2023-03-29T10:20:13;6.97;;;4.50;;
6053;SDS011;3055;50.886;14.814;2023-03-29T10:22:45;5.80;;;4.23;;
6053;SDS011;3055;50.886;14.814;2023-03-29T10:25:15;8.20;;;3.87;;
6053;SDS011;3055;50.886;14.814;2023-03-29T10:27:43;6.57;;;4.23;;
6053;SDS011;3055;50.886;14.814;2023-03-29T10:30:23;4.43;;;3.57;;
6053;SDS011;3055;50.886;14.814;2023-03-29T10:32:54;5.93;;;4.17;;
6053;SDS011;3055;50.886;14.814;2023-03-29T10:35:26;9.73;;;4.63;;
6053;SDS011;3055;50.886;14.814;2023-03-29T10:37:56;5.70;;;3.40;;
6053;SDS011;3055;50.886;14.814;2023-03-29T10:40:25;6.00;;;3.53;;
6053;SDS011;3055;50.886;14.814;2023-03-29T10:42:57;6.73;;;3.70;;
6053;SDS011;3055;50.886;14.814;2023-03-29T10:45:28;14.77;;;4.47;;
6053;SDS011;3055;50.886;14.814;2023-03-29T10:47:57;6.93;;;3.87;;
6053;SDS011;3055;50.886;14.814;2023-03-29T10:50:25;6.67;;;3.97;;
6053;SDS011;3055;50.886;14.814;2023-03-29T10:52:58;6.43;;;3.80;;
6053;SDS011;3055;50.886;14.814;2023-03-29T10:55:28;5.53;;;3.90;;
6053;SDS011;3055;50.886;14.814;2023-03-29T10:58:01;9.80;;;4.10;;
6053;SDS011;3055;50.886;14.814;2023-03-29T11:00:39;5.70;;;3.77;;
6053;SDS011;3055;50.886;14.814;2023-03-29T11:03:16;5.67;;;3.70;;
6053;SDS011;3055;50.886;14.814;2023-03-29T11:05:53;6.03;;;4.10;;
6053;SDS011;3055;50.886;14.814;2023-03-29T11:11:18;4.70;;;3.63;;
6053;SDS011;3055;50.886;14.814;2023-03-29T11:14:09;5.77;;;4.63;;
6053;SDS011;3055;50.886;14.814;2023-03-29T11:16:49;6.13;;;3.40;;
6053;SDS011;3055;50.886;14.814;2023-03-29T11:19:28;6.83;;;4.13;;
6053;SDS011;3055;50.886;14.814;2023-03-29T11:22:22;10.23;;;7.73;;
6053;SDS011;3055;50.886;14.814;2023-03-29T11:27:53;9.93;;;4.47;;
6053;SDS011;3055;50.886;14.814;2023-03-29T11:30:24;6.30;;;3.87;;
6053;SDS011;3055;50.886;14.814;2023-03-29T11:33:03;5.87;;;4.60;;
6053;SDS011;3055;50.886;14.814;2023-03-29T11:35:47;7.63;;;4.67;;
6053;SDS011;3055;50.886;14.814;2023-03-29T11:38:22;5.87;;;4.63;;
6053;SDS011;3055;50.886;14.814;2023-03-29T11:40:56;10.00;;;6.43;;
6053;SDS011;3055;50.886;14.814;2023-03-29T11:43:28;7.97;;;4.70;;
6053;SDS011;3055;50.886;14.814;2023-03-29T11:46:00;7.17;;;4.43;;
6053;SDS011;3055;50.886;14.814;2023-03-29T11:48:35;5.20;;;4.37;;
6053;SDS011;3055;50.886;14.814;2023-03-29T11:51:08;10.53;;;5.73;;
6053;SDS011;3055;50.886;14.814;2023-03-29T11:53:42;6.93;;;4.77;;
6053;SDS011;3055;50.886;14.814;2023-03-29T11:56:18;8.30;;;5.03;;
6053;SDS011;3055;50.886;14.814;2023-03-29T11:58:54;6.43;;;4.87;;
6053;SDS011;3055;50.886;14.814;2023-03-29T12:01:30;7.33;;;5.00;;
6053;SDS011;3055;50.886;14.814;2023-03-29T12:04:03;8.87;;;5.37;;
6053;SDS011;3055;50.886;14.814;2023-03-29T12:06:34;8.33;;;5.63;;
6053;SDS011;3055;50.886;14.814;2023-03-29T12:09:08;7.47;;;4.40;;
6053;SDS011;3055;50.886;14.814;2023-03-29T12:11:43;6.93;;;5.20;;
6053;SDS011;3055;50.886;14.814;2023-03-29T12:14:17;9.73;;;5.80;;
6053;SDS011;3055;50.886;14.814;2023-03-29T12:16:47;5.63;;;4.20;;
6053;SDS011;3055;50.886;14.814;2023-03-29T12:19:20;7.90;;;4.80;;
6053;SDS011;3055;50.886;14.814;2023-03-29T12:21:50;5.37;;;3.90;;
6053;SDS011;3055;50.886;14.814;2023-03-29T12:24:20;10.53;;;5.77;;
6053;SDS011;3055;50.886;14.814;2023-03-29T12:26:51;7.30;;;4.43;;
6053;SDS011;3055;50.886;14.814;2023-03-29T12:29:44;6.93;;;5.10;;
6053;SDS011;3055;50.886;14.814;2023-03-29T12:32:30;6.97;;;4.87;;
6053;SDS011;3055;50.886;14.814;2023-03-29T12:35:15;8.67;;;5.13;;
6053;SDS011;3055;50.886;14.814;2023-03-29T12:37:54;5.23;;;4.00;;
6053;SDS011;3055;50.886;14.814;2023-03-29T12:40:34;6.83;;;4.93;;
6053;SDS011;3055;50.886;14.814;2023-03-29T12:43:06;7.50;;;4.73;;
6053;SDS011;3055;50.886;14.814;2023-03-29T12:45:41;6.80;;;4.27;;
6053;SDS011;3055;50.886;14.814;2023-03-29T12:48:13;6.33;;;4.93;;
6053;SDS011;3055;50.886;14.814;2023-03-29T12:50:47;6.27;;;4.53;;
6053;SDS011;3055;50.886;14.814;2023-03-29T12:53:17;5.50;;;4.30;;
6053;SDS011;3055;50.886;14.814;2023-03-29T12:55:49;4.90;;;4.40;;
6053;SDS011;3055;50.886;14.814;2023-03-29T12:58:23;5.87;;;4.33;;
6053;SDS011;3055;50.886;14.814;2023-03-29T13:01:06;7.27;;;4.90;;
6053;SDS011;3055;50.886;14.814;2023-03-29T13:03:39;4.90;;;4.43;;
6053;SDS011;3055;50.886;14.814;2023-03-29T13:06:23;7.27;;;4.70;;
6053;SDS011;3055;50.886;14.814;2023-03-29T13:08:57;8.37;;;4.90;;
6053;SDS011;3055;50.886;14.814;2023-03-29T13:11:33;7.03;;;4.67;;
6053;SDS011;3055;50.886;14.814;2023-03-29T13:14:07;7.17;;;4.90;;
6053;SDS011;3055;50.886;14.814;2023-03-29T13:16:38;5.73;;;4.70;;
6053;SDS011;3055;50.886;14.814;2023-03-29T13:19:18;7.27;;;5.00;;
6053;SDS011;3055;50.886;14.814;2023-03-29T13:21:58;6.87;;;4.60;;
6053;SDS011;3055;50.886;14.814;2023-03-29T13:24:55;7.27;;;5.30;;
6053;SDS011;3055;50.886;14.814;2023-03-29T13:27:33;7.47;;;5.33;;
6053;SDS011;3055;50.886;14.814;2023-03-29T13:30:16;10.67;;;5.30;;
6053;SDS011;3055;50.886;14.814;2023-03-29T13:32:58;7.50;;;5.20;;
6053;SDS011;3055;50.886;14.814;2023-03-29T13:35:41;6.23;;;5.63;;
6053;SDS011;3055;50.886;14.814;2023-03-29T13:38:18;8.27;;;4.57;;
6053;SDS011;3055;50.886;14.814;2023-03-29T13:41:03;7.50;;;5.07;;
6053;SDS011;3055;50.886;14.814;2023-03-29T13:43:32;6.17;;;4.70;;
6053;SDS011;3055;50.886;14.814;2023-03-29T13:46:12;8.97;;;5.17;;
6053;SDS011;3055;50.886;14.814;2023-03-29T13:48:50;5.57;;;4.53;;
6053;SDS011;3055;50.886;14.814;2023-03-29T13:51:26;8.47;;;4.93;;
6053;SDS011;3055;50.886;14.814;2023-03-29T13:54:00;6.13;;;4.97;;
6053;SDS011;3055;50.886;14.814;2023-03-29T13:56:33;7.60;;;5.10;;
6053;SDS011;3055;50.886;14.814;2023-03-29T13:59:08;7.43;;;5.00;;
6053;SDS011;3055;50.886;14.814;2023-03-29T14:01:40;6.03;;;4.77;;
6053;SDS011;3055;50.886;14.814;2023-03-29T14:04:13;7.57;;;5.10;;
6053;SDS011;3055;50.886;14.814;2023-03-29T14:06:47;8.43;;;5.03;;
6053;SDS011;3055;50.886;14.814;2023-03-29T14:09:19;8.60;;;5.33;;
6053;SDS011;3055;50.886;14.814;2023-03-29T14:11:50;7.40;;;4.90;;
6053;SDS011;3055;50.886;14.814;2023-03-29T14:14:19;5.90;;;4.60;;
6053;SDS011;3055;50.886;14.814;2023-03-29T14:16:49;5.53;;;5.00;;
6053;SDS011;3055;50.886;14.814;2023-03-29T14:19:17;6.13;;;5.20;;
6053;SDS011;3055;50.886;14.814;2023-03-29T14:21:47;6.93;;;4.93;;
6053;SDS011;3055;50.886;14.814;2023-03-29T14:24:16;9.43;;;6.37;;
6053;SDS011;3055;50.886;14.814;2023-03-29T14:26:47;9.27;;;6.20;;
6053;SDS011;3055;50.886;14.814;2023-03-29T14:29:15;8.80;;;5.07;;
6053;SDS011;3055;50.886;14.814;2023-03-29T14:31:42;10.23;;;4.97;;
6053;SDS011;3055;50.886;14.814;2023-03-29T14:34:11;6.10;;;4.77;;
6053;SDS011;3055;50.886;14.814;2023-03-29T14:36:40;6.63;;;4.80;;
6053;SDS011;3055;50.886;14.814;2023-03-29T14:39:10;5.97;;;5.20;;
6053;SDS011;3055;50.886;14.814;2023-03-29T14:41:48;10.73;;;7.37;;
6053;SDS011;3055;50.886;14.814;2023-03-29T14:44:16;6.33;;;4.93;;
6053;SDS011;3055;50.886;14.814;2023-03-29T14:46:45;7.40;;;5.60;;
6053;SDS011;3055;50.886;14.814;2023-03-29T14:49:13;5.70;;;5.10;;
6053;SDS011;3055;50.886;14.814;2023-03-29T14:51:42;7.70;;;5.10;;
6053;SDS011;3055;50.886;14.814;2023-03-29T14:54:15;8.97;;;5.33;;
6053;SDS011;3055;50.886;14.814;2023-03-29T14:56:46;10.57;;;7.90;;
6053;SDS011;3055;50.886;14.814;2023-03-29T14:59:25;9.33;;;6.83;;
6053;SDS011;3055;50.886;14.814;2023-03-29T15:01:53;8.40;;;5.47;;
6053;SDS011;3055;50.886;14.814;2023-03-29T15:04:21;6.53;;;5.10;;
6053;SDS011;3055;50.886;14.814;2023-03-29T15:06:48;7.30;;;5.37;;
6053;SDS011;3055;50.886;14.814;2023-03-29T15:09:17;6.83;;;5.43;;
6053;SDS011;3055;50.886;14.814;2023-03-29T15:11:53;8.33;;;5.43;;
6053;SDS011;3055;50.886;14.814;2023-03-29T15:14:21;5.87;;;5.27;;
6053;SDS011;3055;50.886;14.814;2023-03-29T15:16:51;7.17;;;5.70;;
6053;SDS011;3055;50.886;14.814;2023-03-29T15:19:24;7.40;;;5.10;;
6053;SDS011;3055;50.886;14.814;2023-03-29T15:21:51;7.57;;;4.77;;
6053;SDS011;3055;50.886;14.814;2023-03-29T15:24:20;6.27;;;5.27;;
6053;SDS011;3055;50.886;14.814;2023-03-29T15:27:00;9.33;;;5.63;;